This is the latest recevied weather packets stored in our database for station/object W8RD. If no packets are shown the sender has not sent any weather packets the latest 1 day(s).
| Time | Temp. | Humidity | Pressure | Rain* | Wind** | Luminosity | Snow |
|---|---|---|---|---|---|---|---|
| 1836274377 | 26.11° C | 84% | 1017.6 hPa | 0 mm | 0 m/s | 0 W/m² | - |
| 1836274230 | 26.11° C | 85% | 1017.6 hPa | 0 mm | 0 m/s | 0 W/m² | - |
| 1778050984 | 22.78° C | 79% | 1016.8 hPa | 0 mm | 0 m/s | 0 W/m² | - |
| 1778050379 | 22.78° C | 78% | 1016.7 hPa | 0 mm | 0 m/s | 0 W/m² | - |
| 1778049777 | 22.78° C | 77% | 1016.8 hPa | 0 mm | 0 m/s | 0 W/m² | - |
| 1778049172 | 22.78° C | 76% | 1016.9 hPa | 0 mm | 0 m/s | 0 W/m² | - |
| 1778048568 | 22.78° C | 75% | 1017 hPa | 0 mm | 0 m/s | 0 W/m² | - |
| 1778047967 | 23.33° C | 74% | 1017.1 hPa | 0 mm | 0 m/s | 0 W/m² | - |
| 1778047362 | 23.33° C | 73% | 1017.4 hPa | 0 mm | 0 m/s | 0 W/m² | - |
| 1778046761 | 23.33° C | 72% | 1017.4 hPa | 0 mm | 0 m/s | 0 W/m² | - |
| 1778046161 | 23.33° C | 72% | 1017.4 hPa | 0 mm | 0 m/s | 0 W/m² | - |
| 1778045557 | 23.33° C | 71% | 1017.2 hPa | 0 mm | 0 m/s | 0 W/m² | - |
| 1778044953 | 23.33° C | 72% | 1017.3 hPa | 0 mm | 0 m/s | 0 W/m² | - |
| 1778044351 | 22.22° C | 75% | 1017.4 hPa | 0 mm | 0 m/s | 0 W/m² | - |
| 1778043747 | 21.67° C | 82% | 1017.3 hPa | 0 mm | 0 m/s | 0 W/m² | - |
| 1778043145 | 21.67° C | 86% | 1017.6 hPa | 0 mm | 0 m/s | 0 W/m² | - |
| 1778042541 | 21.67° C | 88% | 1017.6 hPa | 0 mm | 0 m/s | 0 W/m² | - |
| 1778041935 | 21.67° C | 88% | 1017.7 hPa | 0 mm | 0 m/s | 0 W/m² | - |
| 1778041332 | 22.22° C | 87% | 1018 hPa | 0 mm | 0 m/s | 0 W/m² | - |
| 1778040727 | 22.22° C | 86% | 1017.8 hPa | 0 mm | 0 m/s | 0 W/m² | - |
| 1778040127 | 22.22° C | 85% | 1017.6 hPa | 0 mm | 0 m/s | 0 W/m² | - |
| 1778039527 | 22.78° C | 85% | 1017.5 hPa | 0 mm | 0 m/s | 0 W/m² | - |
| 1778038926 | 22.78° C | 84% | 1017.3 hPa | 0 mm | 0 m/s | 0 W/m² | - |
| 1778038326 | 22.78° C | 84% | 1017.6 hPa | 0 mm | 0 m/s | 0 W/m² | - |
| 1778037726 | 22.78° C | 84% | 1017.5 hPa | 0 mm | 0 m/s | 0 W/m² | - |
* Rain latest hour (hover to see other rain measurements)
** Current wind speed in m/s (hover to see current wind gust speed)